sensor_id;sensor_type;location;lat;lon;timestamp;P1;durP1;ratioP1;P2;durP2;ratioP2
8694;SDS011;65580;49.446;6.854;2023-02-23T00:00:39;40.78;;;19.35;;
8694;SDS011;65580;49.446;6.854;2023-02-23T00:04:45;36.67;;;17.40;;
8694;SDS011;65580;49.446;6.854;2023-02-23T00:08:50;35.20;;;16.17;;
8694;SDS011;65580;49.446;6.854;2023-02-23T00:12:54;31.00;;;15.95;;
8694;SDS011;65580;49.446;6.854;2023-02-23T00:16:57;74.22;;;22.20;;
8694;SDS011;65580;49.446;6.854;2023-02-23T00:21:01;45.70;;;20.67;;
8694;SDS011;65580;49.446;6.854;2023-02-23T00:25:07;31.60;;;15.90;;
8694;SDS011;65580;49.446;6.854;2023-02-23T00:29:13;49.38;;;22.45;;
8694;SDS011;65580;49.446;6.854;2023-02-23T00:33:18;33.00;;;17.10;;
8694;SDS011;65580;49.446;6.854;2023-02-23T00:37:22;32.88;;;16.17;;
8694;SDS011;65580;49.446;6.854;2023-02-23T00:41:27;32.80;;;15.55;;
8694;SDS011;65580;49.446;6.854;2023-02-23T00:45:31;29.13;;;15.18;;
8694;SDS011;65580;49.446;6.854;2023-02-23T00:49:34;32.47;;;16.20;;
8694;SDS011;65580;49.446;6.854;2023-02-23T00:53:37;32.50;;;16.48;;
8694;SDS011;65580;49.446;6.854;2023-02-23T00:57:41;27.77;;;14.18;;
8694;SDS011;65580;49.446;6.854;2023-02-23T01:01:45;32.53;;;16.17;;
8694;SDS011;65580;49.446;6.854;2023-02-23T01:05:48;32.72;;;15.32;;
8694;SDS011;65580;49.446;6.854;2023-02-23T01:09:51;29.70;;;15.45;;
8694;SDS011;65580;49.446;6.854;2023-02-23T01:13:57;31.15;;;16.05;;
8694;SDS011;65580;49.446;6.854;2023-02-23T01:18:00;31.67;;;16.02;;
8694;SDS011;65580;49.446;6.854;2023-02-23T01:22:04;33.22;;;16.23;;
8694;SDS011;65580;49.446;6.854;2023-02-23T01:26:12;34.33;;;16.55;;
8694;SDS011;65580;49.446;6.854;2023-02-23T01:34:21;29.95;;;15.25;;
8694;SDS011;65580;49.446;6.854;2023-02-23T01:38:24;28.05;;;15.32;;
8694;SDS011;65580;49.446;6.854;2023-02-23T01:42:28;26.52;;;13.82;;
8694;SDS011;65580;49.446;6.854;2023-02-23T01:46:33;25.70;;;14.00;;
8694;SDS011;65580;49.446;6.854;2023-02-23T01:50:43;25.60;;;13.52;;
8694;SDS011;65580;49.446;6.854;2023-02-23T01:54:50;23.48;;;13.38;;
8694;SDS011;65580;49.446;6.854;2023-02-23T01:58:56;25.27;;;14.18;;
8694;SDS011;65580;49.446;6.854;2023-02-23T02:03:02;31.25;;;15.73;;
8694;SDS011;65580;49.446;6.854;2023-02-23T02:07:09;35.03;;;16.92;;
8694;SDS011;65580;49.446;6.854;2023-02-23T02:11:22;55.10;;;23.13;;
8694;SDS011;65580;49.446;6.854;2023-02-23T02:15:31;32.55;;;15.60;;
8694;SDS011;65580;49.446;6.854;2023-02-23T02:19:52;30.48;;;15.10;;
8694;SDS011;65580;49.446;6.854;2023-02-23T02:24:17;29.88;;;15.93;;
8694;SDS011;65580;49.446;6.854;2023-02-23T02:37:52;36.58;;;17.50;;
8694;SDS011;65580;49.446;6.854;2023-02-23T02:42:05;31.45;;;15.40;;
8694;SDS011;65580;49.446;6.854;2023-02-23T02:46:15;33.83;;;16.33;;
8694;SDS011;65580;49.446;6.854;2023-02-23T02:50:20;39.40;;;18.30;;
8694;SDS011;65580;49.446;6.854;2023-02-23T02:54:27;37.85;;;17.65;;
8694;SDS011;65580;49.446;6.854;2023-02-23T02:58:33;30.17;;;14.82;;
8694;SDS011;65580;49.446;6.854;2023-02-23T03:02:39;32.53;;;16.20;;
8694;SDS011;65580;49.446;6.854;2023-02-23T03:07:01;35.75;;;16.80;;
8694;SDS011;65580;49.446;6.854;2023-02-23T03:11:27;61.72;;;23.23;;
8694;SDS011;65580;49.446;6.854;2023-02-23T03:15:55;38.95;;;18.25;;
8694;SDS011;65580;49.446;6.854;2023-02-23T03:20:22;83.72;;;23.67;;
8694;SDS011;65580;49.446;6.854;2023-02-23T03:24:47;87.47;;;25.83;;
8694;SDS011;65580;49.446;6.854;2023-02-23T03:29:13;88.63;;;26.60;;
8694;SDS011;65580;49.446;6.854;2023-02-23T03:33:39;45.83;;;19.17;;
8694;SDS011;65580;49.446;6.854;2023-02-23T03:38:04;31.60;;;15.20;;
8694;SDS011;65580;49.446;6.854;2023-02-23T03:42:29;30.58;;;14.73;;
8694;SDS011;65580;49.446;6.854;2023-02-23T03:46:53;34.00;;;15.77;;
8694;SDS011;65580;49.446;6.854;2023-02-23T03:51:15;34.97;;;15.55;;
8694;SDS011;65580;49.446;6.854;2023-02-23T03:55:38;135.88;;;29.63;;
8694;SDS011;65580;49.446;6.854;2023-02-23T04:00:01;48.13;;;19.15;;
8694;SDS011;65580;49.446;6.854;2023-02-23T04:04:25;29.60;;;14.35;;
8694;SDS011;65580;49.446;6.854;2023-02-23T04:08:48;29.52;;;14.70;;
8694;SDS011;65580;49.446;6.854;2023-02-23T04:13:10;30.05;;;14.73;;
8694;SDS011;65580;49.446;6.854;2023-02-23T04:17:15;31.70;;;14.43;;
8694;SDS011;65580;49.446;6.854;2023-02-23T04:21:20;31.10;;;14.38;;
8694;SDS011;65580;49.446;6.854;2023-02-23T04:25:23;26.55;;;13.18;;
8694;SDS011;65580;49.446;6.854;2023-02-23T04:29:27;29.83;;;14.40;;
8694;SDS011;65580;49.446;6.854;2023-02-23T04:33:30;28.15;;;13.73;;
8694;SDS011;65580;49.446;6.854;2023-02-23T04:37:34;26.45;;;13.18;;
8694;SDS011;65580;49.446;6.854;2023-02-23T04:41:37;37.88;;;17.52;;
8694;SDS011;65580;49.446;6.854;2023-02-23T04:45:41;28.50;;;14.23;;
8694;SDS011;65580;49.446;6.854;2023-02-23T04:49:44;31.00;;;13.30;;
8694;SDS011;65580;49.446;6.854;2023-02-23T04:53:51;28.52;;;14.43;;
8694;SDS011;65580;49.446;6.854;2023-02-23T04:57:58;31.63;;;13.93;;
8694;SDS011;65580;49.446;6.854;2023-02-23T05:02:02;34.85;;;14.82;;
8694;SDS011;65580;49.446;6.854;2023-02-23T05:06:05;28.40;;;13.50;;
8694;SDS011;65580;49.446;6.854;2023-02-23T05:10:11;24.95;;;11.55;;
8694;SDS011;65580;49.446;6.854;2023-02-23T05:14:14;27.73;;;12.35;;
8694;SDS011;65580;49.446;6.854;2023-02-23T05:18:17;27.17;;;13.15;;
8694;SDS011;65580;49.446;6.854;2023-02-23T05:22:21;491.05;;;38.50;;
8694;SDS011;65580;49.446;6.854;2023-02-23T05:26:25;27.05;;;13.20;;
8694;SDS011;65580;49.446;6.854;2023-02-23T05:30:28;25.15;;;11.40;;
8694;SDS011;65580;49.446;6.854;2023-02-23T05:34:32;31.13;;;14.35;;
8694;SDS011;65580;49.446;6.854;2023-02-23T05:38:35;29.70;;;13.52;;
8694;SDS011;65580;49.446;6.854;2023-02-23T05:42:40;30.30;;;13.63;;
8694;SDS011;65580;49.446;6.854;2023-02-23T05:46:46;36.80;;;14.63;;
8694;SDS011;65580;49.446;6.854;2023-02-23T05:50:49;37.10;;;15.48;;
8694;SDS011;65580;49.446;6.854;2023-02-23T05:54:52;57.47;;;18.67;;
8694;SDS011;65580;49.446;6.854;2023-02-23T05:58:57;284.30;;;35.15;;
8694;SDS011;65580;49.446;6.854;2023-02-23T06:03:00;209.60;;;31.40;;
8694;SDS011;65580;49.446;6.854;2023-02-23T06:07:03;36.92;;;16.55;;
8694;SDS011;65580;49.446;6.854;2023-02-23T06:11:07;31.30;;;14.35;;
8694;SDS011;65580;49.446;6.854;2023-02-23T06:15:11;32.67;;;15.30;;
8694;SDS011;65580;49.446;6.854;2023-02-23T06:19:14;31.73;;;14.63;;
8694;SDS011;65580;49.446;6.854;2023-02-23T06:23:17;29.58;;;12.98;;
8694;SDS011;65580;49.446;6.854;2023-02-23T06:27:20;27.90;;;13.43;;
8694;SDS011;65580;49.446;6.854;2023-02-23T06:31:25;29.90;;;14.27;;
8694;SDS011;65580;49.446;6.854;2023-02-23T06:35:28;28.90;;;13.63;;
8694;SDS011;65580;49.446;6.854;2023-02-23T06:39:31;29.83;;;14.98;;
8694;SDS011;65580;49.446;6.854;2023-02-23T06:43:34;46.63;;;18.92;;
8694;SDS011;65580;49.446;6.854;2023-02-23T06:47:39;26.38;;;13.30;;
8694;SDS011;65580;49.446;6.854;2023-02-23T06:51:42;26.88;;;13.20;;
8694;SDS011;65580;49.446;6.854;2023-02-23T06:55:45;25.75;;;12.82;;
8694;SDS011;65580;49.446;6.854;2023-02-23T06:59:48;88.68;;;20.48;;
8694;SDS011;65580;49.446;6.854;2023-02-23T07:03:53;35.88;;;14.00;;
8694;SDS011;65580;49.446;6.854;2023-02-23T07:07:57;25.88;;;12.07;;
8694;SDS011;65580;49.446;6.854;2023-02-23T07:12:00;248.82;;;30.63;;
8694;SDS011;65580;49.446;6.854;2023-02-23T07:16:04;30.48;;;14.55;;
8694;SDS011;65580;49.446;6.854;2023-02-23T07:20:10;36.53;;;15.43;;
8694;SDS011;65580;49.446;6.854;2023-02-23T07:24:14;35.67;;;16.42;;
8694;SDS011;65580;49.446;6.854;2023-02-23T07:28:18;36.83;;;15.48;;
8694;SDS011;65580;49.446;6.854;2023-02-23T07:36:27;42.90;;;17.95;;
8694;SDS011;65580;49.446;6.854;2023-02-23T07:40:30;84.88;;;24.38;;
8694;SDS011;65580;49.446;6.854;2023-02-23T07:44:32;36.15;;;16.23;;
8694;SDS011;65580;49.446;6.854;2023-02-23T07:48:35;56.58;;;19.67;;
8694;SDS011;65580;49.446;6.854;2023-02-23T07:52:40;34.05;;;16.20;;
8694;SDS011;65580;49.446;6.854;2023-02-23T07:56:44;34.20;;;16.70;;
8694;SDS011;65580;49.446;6.854;2023-02-23T08:00:47;33.92;;;14.82;;
8694;SDS011;65580;49.446;6.854;2023-02-23T08:04:52;51.70;;;19.33;;
8694;SDS011;65580;49.446;6.854;2023-02-23T08:08:58;76.15;;;24.38;;
8694;SDS011;65580;49.446;6.854;2023-02-23T08:13:01;42.65;;;17.67;;
8694;SDS011;65580;49.446;6.854;2023-02-23T08:17:04;39.97;;;16.27;;
8694;SDS011;65580;49.446;6.854;2023-02-23T08:21:08;38.20;;;17.05;;
8694;SDS011;65580;49.446;6.854;2023-02-23T08:25:13;39.90;;;16.73;;
8694;SDS011;65580;49.446;6.854;2023-02-23T08:29:17;56.60;;;20.77;;
8694;SDS011;65580;49.446;6.854;2023-02-23T08:33:21;49.35;;;20.52;;
8694;SDS011;65580;49.446;6.854;2023-02-23T08:37:24;40.67;;;17.60;;
8694;SDS011;65580;49.446;6.854;2023-02-23T08:41:29;64.47;;;22.25;;
8694;SDS011;65580;49.446;6.854;2023-02-23T08:45:32;60.78;;;21.13;;
8694;SDS011;65580;49.446;6.854;2023-02-23T08:49:35;33.47;;;15.57;;
8694;SDS011;65580;49.446;6.854;2023-02-23T08:53:38;46.55;;;19.08;;
8694;SDS011;65580;49.446;6.854;2023-02-23T08:57:43;53.20;;;20.05;;
8694;SDS011;65580;49.446;6.854;2023-02-23T09:01:46;42.17;;;16.25;;
8694;SDS011;65580;49.446;6.854;2023-02-23T09:05:49;58.53;;;19.90;;
8694;SDS011;65580;49.446;6.854;2023-02-23T09:09:52;50.75;;;19.10;;
8694;SDS011;65580;49.446;6.854;2023-02-23T09:13:58;36.40;;;15.23;;
8694;SDS011;65580;49.446;6.854;2023-02-23T09:18:01;39.63;;;16.70;;
8694;SDS011;65580;49.446;6.854;2023-02-23T09:22:04;36.63;;;14.27;;
8694;SDS011;65580;49.446;6.854;2023-02-23T09:26:07;33.67;;;15.65;;
8694;SDS011;65580;49.446;6.854;2023-02-23T09:30:12;29.33;;;14.43;;
8694;SDS011;65580;49.446;6.854;2023-02-23T09:34:18;37.10;;;15.55;;
8694;SDS011;65580;49.446;6.854;2023-02-23T09:38:22;32.88;;;15.18;;
8694;SDS011;65580;49.446;6.854;2023-02-23T09:42:29;37.25;;;14.93;;
8694;SDS011;65580;49.446;6.854;2023-02-23T09:46:40;33.10;;;14.02;;
8694;SDS011;65580;49.446;6.854;2023-02-23T09:50:49;28.80;;;11.77;;
8694;SDS011;65580;49.446;6.854;2023-02-23T09:54:53;26.88;;;11.07;;
8694;SDS011;65580;49.446;6.854;2023-02-23T09:58:57;23.55;;;9.98;;
8694;SDS011;65580;49.446;6.854;2023-02-23T10:03:12;22.23;;;9.88;;
8694;SDS011;65580;49.446;6.854;2023-02-23T10:07:20;28.45;;;11.85;;
8694;SDS011;65580;49.446;6.854;2023-02-23T10:11:31;26.42;;;12.27;;
8694;SDS011;65580;49.446;6.854;2023-02-23T10:15:40;23.10;;;11.10;;
8694;SDS011;65580;49.446;6.854;2023-02-23T10:19:49;26.02;;;11.90;;
8694;SDS011;65580;49.446;6.854;2023-02-23T10:23:59;23.17;;;10.70;;
8694;SDS011;65580;49.446;6.854;2023-02-23T10:28:03;20.70;;;10.48;;
8694;SDS011;65580;49.446;6.854;2023-02-23T10:32:11;22.35;;;10.68;;
8694;SDS011;65580;49.446;6.854;2023-02-23T10:36:23;22.88;;;10.15;;
8694;SDS011;65580;49.446;6.854;2023-02-23T10:40:33;21.45;;;10.23;;
8694;SDS011;65580;49.446;6.854;2023-02-23T10:44:44;25.92;;;11.13;;
8694;SDS011;65580;49.446;6.854;2023-02-23T10:48:49;23.25;;;10.77;;
8694;SDS011;65580;49.446;6.854;2023-02-23T10:52:56;22.27;;;10.82;;
8694;SDS011;65580;49.446;6.854;2023-02-23T10:57:02;27.15;;;12.20;;
8694;SDS011;65580;49.446;6.854;2023-02-23T11:01:10;26.25;;;11.93;;
8694;SDS011;65580;49.446;6.854;2023-02-23T11:05:31;29.50;;;11.45;;
8694;SDS011;65580;49.446;6.854;2023-02-23T11:09:40;26.90;;;12.88;;
8694;SDS011;65580;49.446;6.854;2023-02-23T11:13:48;40.30;;;15.73;;
8694;SDS011;65580;49.446;6.854;2023-02-23T11:17:53;35.55;;;14.20;;
8694;SDS011;65580;49.446;6.854;2023-02-23T11:21:57;35.88;;;15.95;;
8694;SDS011;65580;49.446;6.854;2023-02-23T11:30:09;23.83;;;11.15;;
8694;SDS011;65580;49.446;6.854;2023-02-23T11:34:19;26.08;;;11.68;;
8694;SDS011;65580;49.446;6.854;2023-02-23T11:38:25;30.08;;;12.10;;
8694;SDS011;65580;49.446;6.854;2023-02-23T11:42:31;26.08;;;11.80;;
8694;SDS011;65580;49.446;6.854;2023-02-23T11:46:35;19.40;;;9.45;;
8694;SDS011;65580;49.446;6.854;2023-02-23T11:50:43;24.15;;;10.30;;
8694;SDS011;65580;49.446;6.854;2023-02-23T11:54:53;22.52;;;10.13;;
8694;SDS011;65580;49.446;6.854;2023-02-23T11:59:00;25.48;;;10.70;;
8694;SDS011;65580;49.446;6.854;2023-02-23T12:03:05;27.27;;;11.65;;
8694;SDS011;65580;49.446;6.854;2023-02-23T12:07:24;27.05;;;12.23;;
8694;SDS011;65580;49.446;6.854;2023-02-23T12:11:38;27.58;;;12.02;;
8694;SDS011;65580;49.446;6.854;2023-02-23T12:15:51;26.75;;;10.68;;
8694;SDS011;65580;49.446;6.854;2023-02-23T12:19:57;24.00;;;11.63;;
8694;SDS011;65580;49.446;6.854;2023-02-23T12:24:05;28.30;;;11.77;;
8694;SDS011;65580;49.446;6.854;2023-02-23T12:28:17;28.23;;;13.43;;
8694;SDS011;65580;49.446;6.854;2023-02-23T12:32:37;31.17;;;13.32;;
8694;SDS011;65580;49.446;6.854;2023-02-23T12:36:48;27.77;;;13.13;;
8694;SDS011;65580;49.446;6.854;2023-02-23T12:40:57;28.30;;;12.43;;
8694;SDS011;65580;49.446;6.854;2023-02-23T12:45:09;26.75;;;10.88;;
8694;SDS011;65580;49.446;6.854;2023-02-23T12:49:20;22.30;;;10.35;;
8694;SDS011;65580;49.446;6.854;2023-02-23T12:53:30;26.25;;;11.18;;
8694;SDS011;65580;49.446;6.854;2023-02-23T12:57:38;22.17;;;10.18;;
8694;SDS011;65580;49.446;6.854;2023-02-23T13:01:45;17.88;;;8.82;;
8694;SDS011;65580;49.446;6.854;2023-02-23T13:05:54;23.70;;;10.27;;
8694;SDS011;65580;49.446;6.854;2023-02-23T13:10:01;25.63;;;9.73;;
8694;SDS011;65580;49.446;6.854;2023-02-23T13:14:09;19.95;;;9.27;;
8694;SDS011;65580;49.446;6.854;2023-02-23T13:18:15;18.85;;;9.02;;
8694;SDS011;65580;49.446;6.854;2023-02-23T13:26:33;17.85;;;7.53;;
8694;SDS011;65580;49.446;6.854;2023-02-23T13:30:39;16.58;;;8.00;;
8694;SDS011;65580;49.446;6.854;2023-02-23T13:34:49;19.60;;;8.73;;
8694;SDS011;65580;49.446;6.854;2023-02-23T13:43:23;16.00;;;6.57;;
8694;SDS011;65580;49.446;6.854;2023-02-23T13:47:35;19.10;;;8.45;;
8694;SDS011;65580;49.446;6.854;2023-02-23T13:51:42;19.85;;;8.68;;
8694;SDS011;65580;49.446;6.854;2023-02-23T13:55:48;17.13;;;7.60;;
8694;SDS011;65580;49.446;6.854;2023-02-23T13:59:53;17.05;;;7.35;;
8694;SDS011;65580;49.446;6.854;2023-02-23T14:03:58;13.55;;;7.22;;
8694;SDS011;65580;49.446;6.854;2023-02-23T14:08:03;18.52;;;7.82;;
8694;SDS011;65580;49.446;6.854;2023-02-23T14:12:13;16.02;;;7.80;;
8694;SDS011;65580;49.446;6.854;2023-02-23T14:16:19;14.70;;;7.95;;
8694;SDS011;65580;49.446;6.854;2023-02-23T14:25:01;15.27;;;7.55;;
8694;SDS011;65580;49.446;6.854;2023-02-23T14:34:18;17.52;;;7.47;;
8694;SDS011;65580;49.446;6.854;2023-02-23T14:38:28;16.77;;;7.45;;
8694;SDS011;65580;49.446;6.854;2023-02-23T14:42:49;14.27;;;6.38;;
8694;SDS011;65580;49.446;6.854;2023-02-23T14:46:59;14.80;;;6.60;;
8694;SDS011;65580;49.446;6.854;2023-02-23T14:51:10;10.85;;;5.38;;
8694;SDS011;65580;49.446;6.854;2023-02-23T14:55:19;10.93;;;6.47;;
8694;SDS011;65580;49.446;6.854;2023-02-23T14:59:24;13.10;;;7.05;;
8694;SDS011;65580;49.446;6.854;2023-02-23T15:03:30;13.85;;;6.03;;
8694;SDS011;65580;49.446;6.854;2023-02-23T15:07:35;12.40;;;6.20;;
8694;SDS011;65580;49.446;6.854;2023-02-23T15:11:40;16.13;;;6.95;;
8694;SDS011;65580;49.446;6.854;2023-02-23T15:15:47;13.27;;;7.22;;
8694;SDS011;65580;49.446;6.854;2023-02-23T15:19:56;16.35;;;7.30;;
8694;SDS011;65580;49.446;6.854;2023-02-23T15:24:16;15.18;;;5.82;;
8694;SDS011;65580;49.446;6.854;2023-02-23T15:28:24;12.48;;;5.90;;
8694;SDS011;65580;49.446;6.854;2023-02-23T15:32:32;12.05;;;5.85;;
8694;SDS011;65580;49.446;6.854;2023-02-23T15:36:41;15.85;;;6.85;;
8694;SDS011;65580;49.446;6.854;2023-02-23T15:40:48;18.25;;;7.05;;
8694;SDS011;65580;49.446;6.854;2023-02-23T15:44:57;15.25;;;7.22;;
8694;SDS011;65580;49.446;6.854;2023-02-23T15:49:04;15.25;;;7.72;;
8694;SDS011;65580;49.446;6.854;2023-02-23T15:53:12;15.95;;;7.78;;
8694;SDS011;65580;49.446;6.854;2023-02-23T15:57:25;21.20;;;8.27;;
8694;SDS011;65580;49.446;6.854;2023-02-23T16:01:32;13.45;;;6.82;;
8694;SDS011;65580;49.446;6.854;2023-02-23T16:05:39;15.90;;;7.13;;
8694;SDS011;65580;49.446;6.854;2023-02-23T16:10:03;17.50;;;8.07;;
8694;SDS011;65580;49.446;6.854;2023-02-23T16:14:11;14.20;;;6.95;;
8694;SDS011;65580;49.446;6.854;2023-02-23T16:18:18;17.20;;;8.27;;
8694;SDS011;65580;49.446;6.854;2023-02-23T16:22:24;20.25;;;9.80;;
8694;SDS011;65580;49.446;6.854;2023-02-23T16:26:33;19.40;;;9.23;;
8694;SDS011;65580;49.446;6.854;2023-02-23T16:30:39;16.77;;;8.55;;
8694;SDS011;65580;49.446;6.854;2023-02-23T16:34:47;14.88;;;7.65;;
8694;SDS011;65580;49.446;6.854;2023-02-23T16:38:56;14.95;;;7.57;;
8694;SDS011;65580;49.446;6.854;2023-02-23T16:43:01;19.60;;;8.65;;
8694;SDS011;65580;49.446;6.854;2023-02-23T16:47:28;14.95;;;7.75;;
8694;SDS011;65580;49.446;6.854;2023-02-23T16:51:37;15.50;;;7.70;;
8694;SDS011;65580;49.446;6.854;2023-02-23T16:55:42;14.55;;;7.82;;
8694;SDS011;65580;49.446;6.854;2023-02-23T16:59:50;16.92;;;7.30;;
8694;SDS011;65580;49.446;6.854;2023-02-23T17:03:56;14.98;;;7.70;;
8694;SDS011;65580;49.446;6.854;2023-02-23T17:07:59;17.95;;;7.22;;
8694;SDS011;65580;49.446;6.854;2023-02-23T17:12:03;18.65;;;7.90;;
8694;SDS011;65580;49.446;6.854;2023-02-23T17:16:10;19.23;;;7.63;;
8694;SDS011;65580;49.446;6.854;2023-02-23T17:20:14;14.80;;;7.07;;
8694;SDS011;65580;49.446;6.854;2023-02-23T17:24:22;16.42;;;7.10;;
8694;SDS011;65580;49.446;6.854;2023-02-23T17:28:26;16.42;;;7.20;;
8694;SDS011;65580;49.446;6.854;2023-02-23T17:32:31;20.45;;;8.10;;
8694;SDS011;65580;49.446;6.854;2023-02-23T17:36:34;13.93;;;6.07;;
8694;SDS011;65580;49.446;6.854;2023-02-23T17:40:37;12.90;;;6.57;;
8694;SDS011;65580;49.446;6.854;2023-02-23T17:48:49;15.32;;;7.30;;
8694;SDS011;65580;49.446;6.854;2023-02-23T17:52:57;19.15;;;8.05;;
8694;SDS011;65580;49.446;6.854;2023-02-23T17:57:00;25.35;;;9.68;;
8694;SDS011;65580;49.446;6.854;2023-02-23T18:01:06;14.65;;;7.20;;
8694;SDS011;65580;49.446;6.854;2023-02-23T18:05:25;15.35;;;7.18;;
8694;SDS011;65580;49.446;6.854;2023-02-23T18:09:28;16.30;;;6.85;;
8694;SDS011;65580;49.446;6.854;2023-02-23T18:13:33;13.98;;;7.20;;
8694;SDS011;65580;49.446;6.854;2023-02-23T18:17:37;15.43;;;7.63;;
8694;SDS011;65580;49.446;6.854;2023-02-23T18:21:46;19.65;;;8.80;;
8694;SDS011;65580;49.446;6.854;2023-02-23T18:26:02;21.77;;;9.23;;
8694;SDS011;65580;49.446;6.854;2023-02-23T18:30:08;20.38;;;8.45;;
8694;SDS011;65580;49.446;6.854;2023-02-23T18:34:13;14.55;;;7.30;;
8694;SDS011;65580;49.446;6.854;2023-02-23T18:38:19;16.92;;;7.65;;
8694;SDS011;65580;49.446;6.854;2023-02-23T18:42:29;15.88;;;7.45;;
8694;SDS011;65580;49.446;6.854;2023-02-23T18:46:37;15.38;;;7.07;;
8694;SDS011;65580;49.446;6.854;2023-02-23T18:50:42;16.25;;;8.05;;
8694;SDS011;65580;49.446;6.854;2023-02-23T18:54:50;21.17;;;8.88;;
8694;SDS011;65580;49.446;6.854;2023-02-23T18:58:54;23.90;;;9.75;;
8694;SDS011;65580;49.446;6.854;2023-02-23T19:03:02;41.88;;;13.50;;
8694;SDS011;65580;49.446;6.854;2023-02-23T19:07:05;14.35;;;7.25;;
8694;SDS011;65580;49.446;6.854;2023-02-23T19:11:11;17.77;;;8.10;;
8694;SDS011;65580;49.446;6.854;2023-02-23T19:15:15;18.60;;;8.93;;
8694;SDS011;65580;49.446;6.854;2023-02-23T19:19:19;20.92;;;9.18;;
8694;SDS011;65580;49.446;6.854;2023-02-23T19:23:25;23.27;;;12.45;;
8694;SDS011;65580;49.446;6.854;2023-02-23T19:27:39;97.47;;;22.02;;
8694;SDS011;65580;49.446;6.854;2023-02-23T19:31:47;23.20;;;10.93;;
8694;SDS011;65580;49.446;6.854;2023-02-23T19:35:52;19.10;;;9.10;;
8694;SDS011;65580;49.446;6.854;2023-02-23T19:40:01;20.23;;;8.48;;
8694;SDS011;65580;49.446;6.854;2023-02-23T19:48:10;14.57;;;7.10;;
8694;SDS011;65580;49.446;6.854;2023-02-23T19:52:14;14.50;;;7.68;;
8694;SDS011;65580;49.446;6.854;2023-02-23T19:56:18;16.27;;;7.60;;
8694;SDS011;65580;49.446;6.854;2023-02-23T20:00:30;15.88;;;7.15;;
8694;SDS011;65580;49.446;6.854;2023-02-23T20:04:38;16.23;;;7.75;;
8694;SDS011;65580;49.446;6.854;2023-02-23T20:08:44;24.80;;;10.55;;
8694;SDS011;65580;49.446;6.854;2023-02-23T20:12:50;25.23;;;10.95;;
8694;SDS011;65580;49.446;6.854;2023-02-23T20:17:09;22.73;;;9.23;;
8694;SDS011;65580;49.446;6.854;2023-02-23T20:21:16;20.25;;;9.82;;
8694;SDS011;65580;49.446;6.854;2023-02-23T20:25:24;18.83;;;9.63;;
8694;SDS011;65580;49.446;6.854;2023-02-23T20:29:29;22.42;;;9.32;;
8694;SDS011;65580;49.446;6.854;2023-02-23T20:33:39;19.92;;;8.43;;
8694;SDS011;65580;49.446;6.854;2023-02-23T20:37:43;24.10;;;10.52;;
8694;SDS011;65580;49.446;6.854;2023-02-23T20:41:51;34.92;;;12.70;;
8694;SDS011;65580;49.446;6.854;2023-02-23T20:45:55;25.17;;;11.18;;
8694;SDS011;65580;49.446;6.854;2023-02-23T20:50:03;28.20;;;12.25;;
8694;SDS011;65580;49.446;6.854;2023-02-23T20:54:15;47.50;;;17.05;;
8694;SDS011;65580;49.446;6.854;2023-02-23T20:58:22;37.55;;;16.05;;
8694;SDS011;65580;49.446;6.854;2023-02-23T21:02:27;94.22;;;28.10;;
8694;SDS011;65580;49.446;6.854;2023-02-23T21:06:33;38.33;;;15.48;;
8694;SDS011;65580;49.446;6.854;2023-02-23T21:10:37;39.97;;;15.73;;
8694;SDS011;65580;49.446;6.854;2023-02-23T21:14:41;36.30;;;14.57;;
8694;SDS011;65580;49.446;6.854;2023-02-23T21:18:54;49.90;;;18.90;;
8694;SDS011;65580;49.446;6.854;2023-02-23T21:23:07;32.38;;;13.52;;
8694;SDS011;65580;49.446;6.854;2023-02-23T21:27:11;29.95;;;13.63;;
8694;SDS011;65580;49.446;6.854;2023-02-23T21:35:18;33.53;;;15.00;;
8694;SDS011;65580;49.446;6.854;2023-02-23T21:39:24;35.63;;;14.50;;
8694;SDS011;65580;49.446;6.854;2023-02-23T21:43:32;39.65;;;15.80;;
8694;SDS011;65580;49.446;6.854;2023-02-23T21:47:37;33.13;;;14.40;;
8694;SDS011;65580;49.446;6.854;2023-02-23T21:51:42;29.63;;;13.20;;
8694;SDS011;65580;49.446;6.854;2023-02-23T21:55:56;24.95;;;11.00;;
8694;SDS011;65580;49.446;6.854;2023-02-23T22:00:04;28.13;;;12.02;;
8694;SDS011;65580;49.446;6.854;2023-02-23T22:04:13;27.80;;;11.95;;
8694;SDS011;65580;49.446;6.854;2023-02-23T22:08:18;34.45;;;13.15;;
8694;SDS011;65580;49.446;6.854;2023-02-23T22:12:23;30.92;;;12.07;;
8694;SDS011;65580;49.446;6.854;2023-02-23T22:16:29;38.20;;;12.55;;
8694;SDS011;65580;49.446;6.854;2023-02-23T22:20:33;39.88;;;12.70;;
8694;SDS011;65580;49.446;6.854;2023-02-23T22:24:36;46.60;;;16.35;;
8694;SDS011;65580;49.446;6.854;2023-02-23T22:28:44;51.83;;;15.75;;
8694;SDS011;65580;49.446;6.854;2023-02-23T22:32:48;45.95;;;13.52;;
8694;SDS011;65580;49.446;6.854;2023-02-23T22:36:53;46.42;;;13.65;;
8694;SDS011;65580;49.446;6.854;2023-02-23T22:40:58;43.30;;;13.23;;
8694;SDS011;65580;49.446;6.854;2023-02-23T22:45:04;46.03;;;15.77;;
8694;SDS011;65580;49.446;6.854;2023-02-23T22:49:09;48.05;;;13.85;;
8694;SDS011;65580;49.446;6.854;2023-02-23T22:53:15;48.25;;;14.18;;
8694;SDS011;65580;49.446;6.854;2023-02-23T22:57:20;48.22;;;14.55;;
8694;SDS011;65580;49.446;6.854;2023-02-23T23:01:25;51.33;;;14.00;;
8694;SDS011;65580;49.446;6.854;2023-02-23T23:05:29;44.33;;;13.68;;
8694;SDS011;65580;49.446;6.854;2023-02-23T23:09:36;47.67;;;14.10;;
8694;SDS011;65580;49.446;6.854;2023-02-23T23:13:44;47.63;;;13.93;;
8694;SDS011;65580;49.446;6.854;2023-02-23T23:17:51;45.50;;;14.68;;
8694;SDS011;65580;49.446;6.854;2023-02-23T23:21:55;45.83;;;14.18;;
8694;SDS011;65580;49.446;6.854;2023-02-23T23:26:06;50.67;;;14.70;;
8694;SDS011;65580;49.446;6.854;2023-02-23T23:30:10;39.03;;;12.98;;
8694;SDS011;65580;49.446;6.854;2023-02-23T23:34:19;38.80;;;12.40;;
8694;SDS011;65580;49.446;6.854;2023-02-23T23:38:27;55.10;;;14.30;;
8694;SDS011;65580;49.446;6.854;2023-02-23T23:42:33;51.28;;;13.98;;
8694;SDS011;65580;49.446;6.854;2023-02-23T23:46:37;41.00;;;12.38;;
8694;SDS011;65580;49.446;6.854;2023-02-23T23:50:45;46.10;;;13.48;;
8694;SDS011;65580;49.446;6.854;2023-02-23T23:54:50;46.83;;;13.15;;
8694;SDS011;65580;49.446;6.854;2023-02-23T23:58:57;43.20;;;12.35;;
